Terminal Aerodrome Forecast
Issued by NWS Upton, NY

Home | Current Version | Previous Version | Text Only | Print | Product List | Glossary On
Versions: 1 2 3 4 5 6 7 8 9 10 11 12 13 14 15 16 17 18 19 20 21 22 23 24 25 26 27 28 29 30 31 32
000
FTUS41 KOKX 260200 AAA
TAFJFK
TAF AMD
KJFK 260233Z 2603/2706 25007KT P6SM BKN150
     FM260600 35008KT P6SM SCT070 OVC120
     FM260900 01009KT 6SM -RA OVC025
     FM261100 02012KT 4SM -RA OVC015
     FM261500 03013KT 4SM -RASN OVC009
     FM261700 02015G20KT 2SM -SN OVC007
     FM261900 01018G25KT 1SM -SN OVC004
     FM270200 33018G25KT 6SM -SHSN OVC030=

USA.gov is the U.S. government's official web portal to all federal, state and local government web resources and services.